createdAt,value
2024-03-12T00:00:59.898Z,602.00
2024-03-12T00:01:59.807Z,601.00
2024-03-12T00:02:59.742Z,602.00
2024-03-12T00:03:59.802Z,607.00
2024-03-12T00:04:59.738Z,605.00
2024-03-12T00:05:59.788Z,605.00
2024-03-12T00:06:59.781Z,608.00
2024-03-12T00:07:59.783Z,609.00
2024-03-12T00:08:59.809Z,605.00
2024-03-12T00:09:59.875Z,607.00
2024-03-12T00:10:59.831Z,607.00
2024-03-12T00:11:59.831Z,611.00
2024-03-12T00:12:59.907Z,609.00
2024-03-12T00:13:59.889Z,607.00
2024-03-12T00:14:59.870Z,609.00
2024-03-12T00:15:59.967Z,603.00
2024-03-12T00:16:59.914Z,607.00
2024-03-12T00:17:59.966Z,606.00
2024-03-12T00:18:59.961Z,612.00
2024-03-12T00:19:59.975Z,608.00
2024-03-12T00:20:59.968Z,610.00
2024-03-12T00:22:00.008Z,608.00
2024-03-12T00:23:00.332Z,612.00
2024-03-12T00:24:00.413Z,613.00
2024-03-12T00:25:00.140Z,611.00
2024-03-12T00:26:00.916Z,613.00
2024-03-12T00:27:00.084Z,612.00
2024-03-12T00:28:00.334Z,612.00
2024-03-12T00:29:00.107Z,613.00
2024-03-12T00:30:00.222Z,614.00
2024-03-12T00:31:00.162Z,615.00
2024-03-12T00:32:00.168Z,617.00
2024-03-12T00:33:00.183Z,615.00
2024-03-12T00:34:00.227Z,615.00
2024-03-12T00:35:00.202Z,612.00
2024-03-12T00:36:00.193Z,607.00
2024-03-12T00:37:00.314Z,603.00
2024-03-12T00:38:00.255Z,601.00
2024-03-12T00:39:00.239Z,603.00
2024-03-12T00:40:00.322Z,604.00
2024-03-12T00:41:00.267Z,603.00
2024-03-12T00:42:00.281Z,600.00
2024-03-12T00:43:00.415Z,605.00
2024-03-12T00:44:00.419Z,600.00
2024-03-12T00:45:00.360Z,604.00
2024-03-12T00:46:00.435Z,600.00
2024-03-12T00:47:00.379Z,601.00
2024-03-12T00:48:00.415Z,601.00
2024-03-12T00:49:00.479Z,604.00
2024-03-12T00:50:00.424Z,605.00
2024-03-12T00:51:00.446Z,605.00
2024-03-12T00:52:00.554Z,604.00
2024-03-12T00:53:00.456Z,603.00
2024-03-12T00:54:00.573Z,600.00
2024-03-12T00:55:00.623Z,607.00
2024-03-12T00:56:00.507Z,608.00
2024-03-12T00:57:00.558Z,610.00
2024-03-12T00:58:00.871Z,611.00
2024-03-12T00:59:00.563Z,610.00
2024-03-12T01:00:00.565Z,612.00
2024-03-12T01:01:00.697Z,610.00
2024-03-12T01:02:00.646Z,612.00
2024-03-12T01:03:00.609Z,611.00
2024-03-12T01:04:00.649Z,613.00
2024-03-12T01:05:00.644Z,616.00
2024-03-12T01:06:00.632Z,621.00
2024-03-12T01:07:00.839Z,624.00
2024-03-12T01:08:00.673Z,628.00
2024-03-12T01:09:00.703Z,627.00
2024-03-12T01:10:00.858Z,636.00
2024-03-12T01:11:00.774Z,637.00
2024-03-12T01:12:00.746Z,640.00
2024-03-12T01:13:00.762Z,649.00
2024-03-12T01:14:00.733Z,651.00
2024-03-12T01:15:00.785Z,648.00
2024-03-12T01:16:00.836Z,653.00
2024-03-12T01:17:00.785Z,650.00
2024-03-12T01:18:00.844Z,653.00
2024-03-12T01:19:00.898Z,648.00
2024-03-12T01:20:00.835Z,647.00
2024-03-12T01:21:00.819Z,647.00
2024-03-12T01:22:00.967Z,646.00
2024-03-12T01:23:00.846Z,653.00
2024-03-12T01:24:00.878Z,651.00
2024-03-12T01:25:00.972Z,652.00
2024-03-12T01:26:00.897Z,654.00
2024-03-12T01:27:00.920Z,651.00
2024-03-12T01:28:01.149Z,655.00
2024-03-12T01:29:00.953Z,655.00
2024-03-12T01:30:00.948Z,652.00
2024-03-12T01:31:00.956Z,650.00
2024-03-12T01:32:00.967Z,656.00
2024-03-12T01:33:01.043Z,653.00
2024-03-12T01:34:01.092Z,656.00
2024-03-12T01:35:01.030Z,653.00
2024-03-12T01:36:01.035Z,649.00
2024-03-12T01:37:01.109Z,651.00
2024-03-12T01:38:01.063Z,652.00
2024-03-12T01:39:01.092Z,657.00
2024-03-12T01:40:01.136Z,655.00
2024-03-12T01:41:01.110Z,657.00
2024-03-12T01:42:01.117Z,654.00
2024-03-12T01:43:01.260Z,655.00
2024-03-12T01:44:01.152Z,651.00
2024-03-12T01:45:01.177Z,645.00
2024-03-12T01:46:01.235Z,647.00
2024-03-12T01:47:01.173Z,649.00
2024-03-12T01:48:01.274Z,649.00
2024-03-12T01:49:01.319Z,645.00
2024-03-12T01:50:01.224Z,644.00
2024-03-12T01:51:01.249Z,655.00
2024-03-12T01:52:01.322Z,661.00
2024-03-12T01:53:01.250Z,663.00
2024-03-12T01:54:01.278Z,673.00
2024-03-12T01:55:01.443Z,695.00
2024-03-12T01:56:01.301Z,698.00
2024-03-12T01:57:01.297Z,699.00
2024-03-12T01:58:01.417Z,702.00
2024-03-12T01:59:01.347Z,702.00
2024-03-12T02:00:01.322Z,716.00
2024-03-12T02:01:01.452Z,720.00
2024-03-12T02:02:01.466Z,725.00
2024-03-12T02:03:01.364Z,740.00
2024-03-12T02:04:01.489Z,743.00
2024-03-12T02:05:01.404Z,740.00
2024-03-12T02:06:01.403Z,758.00
2024-03-12T02:07:01.548Z,753.00
2024-03-12T02:08:01.428Z,741.00
2024-03-12T02:09:01.436Z,754.00
2024-03-12T02:10:01.524Z,758.00
2024-03-12T02:11:01.519Z,772.00
2024-03-12T02:12:01.483Z,770.00
2024-03-12T02:13:01.547Z,770.00
2024-03-12T02:14:01.530Z,776.00
2024-03-12T02:15:01.494Z,792.00
2024-03-12T02:16:01.611Z,790.00
2024-03-12T02:17:01.566Z,797.00
2024-03-12T02:18:01.646Z,795.00
2024-03-12T02:19:01.612Z,782.00
2024-03-12T02:20:01.567Z,793.00
2024-03-12T02:21:01.574Z,807.00
2024-03-12T02:22:01.668Z,792.00
2024-03-12T02:23:01.614Z,792.00
2024-03-12T02:24:01.617Z,795.00
2024-03-12T02:25:01.674Z,788.00
2024-03-12T02:26:01.643Z,775.00
2024-03-12T02:27:01.662Z,783.00
2024-03-12T02:28:01.697Z,784.00
2024-03-12T02:29:01.692Z,780.00
2024-03-12T02:30:01.737Z,783.00
2024-03-12T02:31:01.833Z,779.00
2024-03-12T02:32:01.730Z,790.00
2024-03-12T02:33:01.798Z,782.00
2024-03-12T02:34:01.833Z,795.00
2024-03-12T02:35:01.778Z,802.00
2024-03-12T02:36:01.751Z,816.00
2024-03-12T02:37:01.860Z,826.00
2024-03-12T02:38:01.799Z,840.00
2024-03-12T02:39:01.821Z,846.00
2024-03-12T02:40:01.964Z,856.00
2024-03-12T02:41:01.840Z,851.00
2024-03-12T02:42:01.838Z,856.00
2024-03-12T02:43:01.962Z,850.00
2024-03-12T02:44:01.898Z,854.00
2024-03-12T02:45:01.896Z,844.00
2024-03-12T02:46:01.997Z,844.00
2024-03-12T02:47:01.913Z,831.00
2024-03-12T02:48:01.983Z,838.00
2024-03-12T02:49:02.115Z,820.00
2024-03-12T02:50:02.004Z,825.00
2024-03-12T02:51:01.972Z,818.00
2024-03-12T02:52:02.149Z,806.00
2024-03-12T02:53:01.982Z,814.00
2024-03-12T02:54:02.032Z,800.00
2024-03-12T02:55:02.234Z,798.00
2024-03-12T02:56:02.013Z,786.00
2024-03-12T02:57:02.046Z,788.00
2024-03-12T02:58:02.141Z,779.00
2024-03-12T02:59:02.108Z,784.00
2024-03-12T03:00:02.075Z,771.00
2024-03-12T03:01:02.209Z,770.00
2024-03-12T03:02:02.139Z,764.00
2024-03-12T03:03:02.127Z,762.00
2024-03-12T03:04:02.224Z,754.00
2024-03-12T03:05:02.157Z,760.00
2024-03-12T03:06:02.177Z,756.00
2024-03-12T03:07:02.257Z,757.00
2024-03-12T03:08:02.229Z,748.00
2024-03-12T03:09:02.246Z,753.00
2024-03-12T03:10:02.521Z,741.00
2024-03-12T03:11:02.343Z,744.00
2024-03-12T03:12:02.282Z,752.00
2024-03-12T03:13:02.355Z,737.00
2024-03-12T03:14:02.293Z,755.00
2024-03-12T03:15:02.351Z,756.00
2024-03-12T03:16:02.388Z,760.00
2024-03-12T03:17:02.343Z,758.00
2024-03-12T03:18:02.458Z,759.00
2024-03-12T03:19:02.396Z,757.00
2024-03-12T03:20:02.418Z,764.00
2024-03-12T03:21:02.397Z,771.00
2024-03-12T03:22:02.559Z,763.00
2024-03-12T03:23:02.417Z,765.00
2024-03-12T03:24:02.441Z,766.00
2024-03-12T03:25:02.643Z,768.00
2024-03-12T03:26:02.440Z,762.00
2024-03-12T03:27:02.477Z,768.00
2024-03-12T03:28:02.571Z,767.00
2024-03-12T03:29:02.529Z,769.00
2024-03-12T03:30:02.503Z,776.00
2024-03-12T03:31:02.564Z,780.00
2024-03-12T03:32:02.559Z,772.00
2024-03-12T03:33:02.608Z,776.00
2024-03-12T03:34:02.580Z,766.00
2024-03-12T03:35:02.568Z,769.00
2024-03-12T03:36:02.583Z,773.00
2024-03-12T03:37:02.671Z,778.00
2024-03-12T03:38:02.682Z,766.00
2024-03-12T03:39:02.613Z,771.00
2024-03-12T03:40:02.719Z,762.00
2024-03-12T03:41:02.641Z,765.00
2024-03-12T03:42:02.641Z,773.00
2024-03-12T03:43:02.684Z,768.00
2024-03-12T03:44:02.663Z,775.00
2024-03-12T03:45:02.703Z,781.00
2024-03-12T03:46:02.730Z,775.00
2024-03-12T03:47:02.735Z,775.00
2024-03-12T03:48:02.788Z,765.00
2024-03-12T03:49:02.816Z,768.00
2024-03-12T03:50:02.732Z,760.00
2024-03-12T03:51:02.748Z,755.00
2024-03-12T03:52:02.858Z,759.00
2024-03-12T03:53:02.769Z,764.00
2024-03-12T03:54:02.795Z,761.00
2024-03-12T03:55:03.144Z,766.00
2024-03-12T03:56:02.802Z,765.00
2024-03-12T03:57:02.810Z,755.00
2024-03-12T03:58:02.951Z,764.00
2024-03-12T03:59:02.851Z,770.00
2024-03-12T04:00:02.836Z,768.00
2024-03-12T04:01:02.914Z,774.00
2024-03-12T04:02:02.884Z,770.00
2024-03-12T04:03:02.888Z,772.00
2024-03-12T04:04:02.983Z,765.00
2024-03-12T04:05:02.906Z,796.00
2024-03-12T04:06:02.932Z,792.00
2024-03-12T04:07:03.008Z,797.00
2024-03-12T04:08:02.941Z,800.00
2024-03-12T04:09:02.971Z,800.00
2024-03-12T04:10:03.004Z,810.00
2024-03-12T04:11:03.023Z,815.00
2024-03-12T04:12:02.995Z,813.00
2024-03-12T04:13:03.035Z,827.00
2024-03-12T04:14:03.022Z,833.00
2024-03-12T04:15:03.031Z,834.00
2024-03-12T04:16:03.178Z,821.00
2024-03-12T04:17:03.045Z,828.00
2024-03-12T04:18:03.119Z,839.00
2024-03-12T04:19:03.213Z,839.00
2024-03-12T04:20:03.109Z,839.00
2024-03-12T04:21:03.109Z,846.00
2024-03-12T04:22:03.150Z,843.00
2024-03-12T04:23:03.156Z,840.00
2024-03-12T04:24:03.152Z,850.00
2024-03-12T04:25:03.224Z,849.00
2024-03-12T04:26:03.196Z,850.00
2024-03-12T04:27:03.213Z,846.00
2024-03-12T04:28:03.329Z,846.00
2024-03-12T04:29:03.230Z,855.00
2024-03-12T04:30:03.252Z,852.00
2024-03-12T04:31:03.279Z,857.00
2024-03-12T04:32:10.659Z,600.00
2024-03-12T04:33:10.674Z,600.00
2024-03-12T04:34:10.709Z,600.00
2024-03-12T04:35:11.160Z,600.00
2024-03-12T04:36:10.648Z,600.00
2024-03-12T04:37:10.732Z,600.00
2024-03-12T04:38:12.588Z,603.00
2024-03-12T04:39:10.653Z,600.00
2024-03-12T04:40:10.841Z,603.00
2024-03-12T04:41:10.902Z,604.00
2024-03-12T04:42:10.662Z,608.00
2024-03-12T04:43:10.725Z,611.00
2024-03-12T04:44:10.661Z,613.00
2024-03-12T04:45:10.671Z,614.00
2024-03-12T04:46:10.689Z,619.00
2024-03-12T04:47:10.670Z,621.00
2024-03-12T04:48:10.669Z,622.00
2024-03-12T04:49:10.773Z,620.00
2024-03-12T04:50:10.675Z,619.00
2024-03-12T04:51:10.650Z,623.00
2024-03-12T04:52:10.694Z,623.00
2024-03-12T04:53:10.663Z,624.00
2024-03-12T04:54:10.667Z,624.00
2024-03-12T04:55:10.703Z,624.00
2024-03-12T04:56:10.669Z,626.00
2024-03-12T04:57:10.660Z,620.00
2024-03-12T04:58:10.686Z,623.00
2024-03-12T04:59:10.663Z,620.00
2024-03-12T05:00:10.651Z,622.00
2024-03-12T05:01:10.734Z,617.00
2024-03-12T05:02:10.667Z,617.00
2024-03-12T05:03:10.656Z,617.00
2024-03-12T05:04:15.872Z,619.00
2024-03-12T05:05:11.660Z,619.00
2024-03-12T05:06:10.676Z,619.00
2024-03-12T05:07:10.714Z,617.00
2024-03-12T05:08:10.664Z,613.00
2024-03-12T05:09:10.681Z,610.00
2024-03-12T05:10:10.786Z,607.00
2024-03-12T05:11:10.673Z,609.00
2024-03-12T05:12:10.691Z,609.00
2024-03-12T05:13:10.716Z,607.00
2024-03-12T05:14:10.664Z,609.00
2024-03-12T05:15:10.861Z,607.00
2024-03-12T05:16:10.760Z,603.00
2024-03-12T05:17:10.721Z,609.00
2024-03-12T05:18:10.724Z,609.00
2024-03-12T05:19:10.732Z,609.00
2024-03-12T05:20:10.938Z,610.00
2024-03-12T05:21:10.658Z,606.00
2024-03-12T05:22:10.796Z,604.00
2024-03-12T05:23:10.681Z,606.00
2024-03-12T05:24:10.687Z,601.00
2024-03-12T05:25:11.077Z,602.00
2024-03-12T05:26:10.673Z,607.00
2024-03-12T05:27:10.672Z,604.00
2024-03-12T05:28:11.078Z,603.00
2024-03-12T05:29:10.681Z,601.00
2024-03-12T05:30:10.662Z,604.00
2024-03-12T05:31:10.741Z,604.00
2024-03-12T05:32:10.668Z,607.00
2024-03-12T05:33:10.759Z,607.00
2024-03-12T05:34:10.684Z,606.00
2024-03-12T05:35:10.679Z,603.00
2024-03-12T05:36:10.878Z,611.00
2024-03-12T05:37:10.735Z,611.00
2024-03-12T05:38:10.706Z,609.00
2024-03-12T05:39:10.687Z,612.00
2024-03-12T05:40:10.748Z,611.00
2024-03-12T05:41:10.687Z,615.00
2024-03-12T05:42:10.689Z,616.00
2024-03-12T05:43:10.789Z,622.00
2024-03-12T05:44:10.683Z,620.00
2024-03-12T05:45:10.700Z,624.00
2024-03-12T05:46:10.725Z,624.00
2024-03-12T05:47:10.706Z,625.00
2024-03-12T05:48:10.778Z,625.00
2024-03-12T05:49:10.853Z,628.00
2024-03-12T05:50:10.680Z,628.00
2024-03-12T05:51:10.696Z,630.00
2024-03-12T05:52:10.719Z,634.00
2024-03-12T05:53:10.683Z,630.00
2024-03-12T05:54:10.702Z,636.00
2024-03-12T05:55:10.718Z,635.00
2024-03-12T05:56:12.311Z,635.00
2024-03-12T05:57:10.724Z,639.00
2024-03-12T05:58:10.752Z,638.00
2024-03-12T05:59:10.692Z,642.00
2024-03-12T06:00:10.686Z,645.00
2024-03-12T06:01:10.756Z,643.00
2024-03-12T06:02:10.715Z,644.00
2024-03-12T06:03:10.712Z,643.00
2024-03-12T06:04:10.704Z,644.00
2024-03-12T06:05:10.689Z,644.00
2024-03-12T06:06:10.703Z,644.00
2024-03-12T06:07:10.802Z,640.00
2024-03-12T06:08:10.703Z,644.00
2024-03-12T06:09:10.738Z,643.00
2024-03-12T06:10:11.016Z,649.00
2024-03-12T06:11:10.755Z,652.00
2024-03-12T06:12:10.720Z,650.00
2024-03-12T06:13:10.906Z,651.00
2024-03-12T06:14:11.178Z,656.00
2024-03-12T06:15:10.743Z,661.00
2024-03-12T06:16:10.836Z,662.00
2024-03-12T06:17:10.733Z,662.00
2024-03-12T06:18:10.774Z,663.00
2024-03-12T06:19:10.790Z,674.00
2024-03-12T06:20:11.669Z,675.00
2024-03-12T06:21:10.718Z,684.00
2024-03-12T06:22:11.200Z,688.00
2024-03-12T06:23:10.735Z,678.00
2024-03-12T06:24:10.722Z,686.00
2024-03-12T06:25:11.273Z,698.00
2024-03-12T06:26:10.742Z,690.00
2024-03-12T06:27:10.755Z,676.00
2024-03-12T06:28:10.861Z,673.00
2024-03-12T06:29:11.189Z,659.00
2024-03-12T06:30:10.743Z,670.00
2024-03-12T06:31:10.840Z,663.00
2024-03-12T06:32:10.732Z,673.00
2024-03-12T06:33:10.798Z,686.00
2024-03-12T06:34:11.228Z,689.00
2024-03-12T06:35:10.745Z,686.00
2024-03-12T06:36:10.729Z,721.00
2024-03-12T06:37:10.829Z,721.00
2024-03-12T06:38:10.733Z,755.00
2024-03-12T06:39:11.189Z,771.00
2024-03-12T06:40:10.817Z,769.00
2024-03-12T06:41:10.762Z,826.00
2024-03-12T06:42:10.758Z,882.00
2024-03-12T06:43:10.765Z,931.00
2024-03-12T06:44:11.290Z,974.00
2024-03-12T06:45:10.752Z,1018.00
2024-03-12T06:46:11.290Z,1059.00
2024-03-12T06:47:10.767Z,1088.00
2024-03-12T06:48:10.801Z,1127.00
2024-03-12T06:49:10.955Z,1158.00
2024-03-12T06:50:10.744Z,1185.00
2024-03-12T06:51:10.746Z,1189.00
2024-03-12T06:52:10.922Z,1218.00
2024-03-12T06:53:10.780Z,1255.00
2024-03-12T06:54:11.209Z,1291.00
2024-03-12T06:55:12.101Z,1310.00
2024-03-12T06:56:10.806Z,1333.00
2024-03-12T06:57:10.856Z,1340.00
2024-03-12T06:58:10.985Z,1363.00
2024-03-12T06:59:11.172Z,1384.00
2024-03-12T07:00:11.387Z,1394.00
2024-03-12T07:01:11.253Z,1414.00
2024-03-12T07:02:11.312Z,1443.00
2024-03-12T07:03:11.241Z,1457.00
2024-03-12T07:04:11.364Z,1449.00
2024-03-12T07:05:11.352Z,1450.00
2024-03-12T07:06:11.434Z,1441.00
2024-03-12T07:07:11.525Z,1444.00
2024-03-12T07:08:11.597Z,1453.00
2024-03-12T07:09:13.754Z,1447.00
2024-03-12T07:10:11.806Z,1432.00
2024-03-12T07:11:11.722Z,1433.00
2024-03-12T07:12:11.629Z,1439.00
2024-03-12T07:13:11.705Z,1431.00
2024-03-12T07:14:11.655Z,1422.00
2024-03-12T07:15:11.618Z,1441.00
2024-03-12T07:16:11.835Z,1447.00
2024-03-12T07:17:11.649Z,1481.00
2024-03-12T07:18:11.663Z,1493.00
2024-03-12T07:19:11.818Z,1522.00
2024-03-12T07:20:11.620Z,1531.00
2024-03-12T07:21:11.623Z,1529.00
2024-03-12T07:22:11.720Z,1634.00
2024-03-12T07:23:11.652Z,1683.00
2024-03-12T07:24:11.658Z,1709.00
2024-03-12T07:25:11.683Z,1735.00
2024-03-12T07:26:11.638Z,1749.00
2024-03-12T07:27:11.633Z,1761.00
2024-03-12T07:28:11.735Z,1773.00
2024-03-12T07:29:11.697Z,1769.00
2024-03-12T07:30:11.708Z,1768.00
2024-03-12T07:31:11.693Z,1754.00
2024-03-12T07:32:11.622Z,1734.00
2024-03-12T07:33:11.677Z,1704.00
2024-03-12T07:34:11.698Z,1687.00
2024-03-12T07:35:11.701Z,1690.00
2024-03-12T07:36:11.657Z,1678.00
2024-03-12T07:37:11.825Z,1625.00
2024-03-12T07:38:11.652Z,1564.00
2024-03-12T07:39:11.720Z,1495.00
2024-03-12T07:40:11.691Z,1431.00
2024-03-12T07:41:11.635Z,1396.00
2024-03-12T07:42:14.918Z,1374.00
2024-03-12T07:43:11.740Z,1372.00
2024-03-12T07:44:11.623Z,1354.00
2024-03-12T07:45:11.711Z,1368.00
2024-03-12T07:46:11.832Z,1377.00
2024-03-12T07:47:11.762Z,1365.00
2024-03-12T07:48:11.666Z,1372.00
2024-03-12T07:49:12.700Z,1372.00
2024-03-12T07:50:11.647Z,1377.00
2024-03-12T07:51:11.636Z,1388.00
2024-03-12T07:52:11.863Z,1385.00
2024-03-12T07:53:11.651Z,1397.00
2024-03-12T07:54:11.677Z,1406.00
2024-03-12T07:55:11.799Z,1409.00
2024-03-12T07:56:11.641Z,1417.00
2024-03-12T07:57:11.654Z,1418.00
2024-03-12T07:58:11.700Z,1436.00
2024-03-12T07:59:11.688Z,1455.00
2024-03-12T08:00:11.654Z,1460.00
2024-03-12T08:01:11.772Z,1471.00
2024-03-12T08:02:11.774Z,1483.00
2024-03-12T08:03:11.662Z,1494.00
2024-03-12T08:04:11.770Z,1491.00
2024-03-12T08:05:11.670Z,1510.00
2024-03-12T08:06:11.665Z,1523.00
2024-03-12T08:07:11.776Z,1516.00
2024-03-12T08:08:11.665Z,1515.00
2024-03-12T08:09:11.679Z,1510.00
2024-03-12T08:10:11.867Z,1501.00
2024-03-12T08:11:11.732Z,1501.00
2024-03-12T08:12:13.521Z,1491.00
2024-03-12T08:13:11.851Z,1479.00
2024-03-12T08:14:11.817Z,1471.00
2024-03-12T08:15:11.824Z,1473.00
2024-03-12T08:16:11.924Z,1455.00
2024-03-12T08:17:11.913Z,1452.00
2024-03-12T08:18:17.490Z,1460.00
2024-03-12T08:19:13.161Z,1453.00
2024-03-12T08:20:12.211Z,1453.00
2024-03-12T08:21:11.934Z,1449.00
2024-03-12T08:22:12.187Z,1446.00
2024-03-12T08:23:11.943Z,1430.00
2024-03-12T08:24:14.717Z,1439.00
2024-03-12T08:25:12.443Z,1421.00
2024-03-12T08:26:11.932Z,1417.00
2024-03-12T08:27:11.931Z,1386.00
2024-03-12T08:28:11.980Z,1394.00
2024-03-12T08:29:11.963Z,1400.00
2024-03-12T08:30:12.221Z,1415.00
2024-03-12T08:32:11.978Z,1397.00
2024-03-12T08:33:11.969Z,1390.00
2024-03-12T08:34:11.996Z,1375.00
2024-03-12T08:35:12.309Z,1375.00
2024-03-12T08:36:12.003Z,1368.00
2024-03-12T08:37:11.980Z,1353.00
2024-03-12T08:38:11.967Z,1345.00
2024-03-12T08:39:11.968Z,1324.00
2024-03-12T08:40:12.049Z,1328.00
2024-03-12T08:41:11.975Z,1278.00
2024-03-12T08:42:11.956Z,1277.00
2024-03-12T08:43:11.993Z,1285.00
2024-03-12T08:44:11.962Z,1253.00
2024-03-12T08:45:11.966Z,1248.00
2024-03-12T08:46:12.002Z,1263.00
2024-03-12T08:47:12.005Z,1268.00
2024-03-12T08:48:12.143Z,1265.00
2024-03-12T08:49:12.732Z,1259.00
2024-03-12T08:50:12.321Z,1288.00
2024-03-12T08:51:12.290Z,1281.00
2024-03-12T08:52:12.370Z,1276.00
2024-03-12T08:53:15.698Z,1281.00
2024-03-12T08:54:12.473Z,1300.00
2024-03-12T08:55:12.493Z,1249.00
2024-03-12T08:56:12.429Z,1278.00
2024-03-12T08:57:12.422Z,1268.00
2024-03-12T08:58:12.444Z,1284.00
2024-03-12T08:59:12.411Z,1271.00
2024-03-12T09:00:12.569Z,1275.00
2024-03-12T09:01:12.509Z,1299.00
2024-03-12T09:02:12.456Z,1274.00
2024-03-12T09:03:12.451Z,1296.00
2024-03-12T09:04:12.606Z,1293.00
2024-03-12T09:05:12.413Z,1286.00
2024-03-12T09:06:12.428Z,1305.00
2024-03-12T09:07:12.578Z,1297.00
2024-03-12T09:08:12.436Z,1305.00
2024-03-12T09:09:12.430Z,1351.00
2024-03-12T09:10:12.899Z,1343.00
2024-03-12T09:11:12.471Z,1333.00
2024-03-12T09:12:12.429Z,1364.00
2024-03-12T09:13:12.502Z,1334.00
2024-03-12T09:14:12.444Z,1310.00
2024-03-12T09:15:12.428Z,1301.00
2024-03-12T09:16:12.783Z,1252.00
2024-03-12T09:17:12.452Z,1212.00
2024-03-12T09:18:12.489Z,1165.00
2024-03-12T09:19:12.460Z,1131.00
2024-03-12T09:20:12.586Z,1112.00
2024-03-12T09:21:12.758Z,1075.00
2024-03-12T09:22:12.479Z,1063.00
2024-03-12T09:23:12.453Z,1061.00
2024-03-12T09:24:12.446Z,1071.00
2024-03-12T09:25:13.728Z,1053.00
2024-03-12T09:26:12.493Z,1018.00
2024-03-12T09:27:12.472Z,1010.00
2024-03-12T09:28:12.486Z,958.00
2024-03-12T09:29:12.465Z,946.00
2024-03-12T09:30:12.466Z,944.00
2024-03-12T09:31:12.481Z,896.00
2024-03-12T09:32:12.488Z,854.00
2024-03-12T09:33:12.527Z,798.00
2024-03-12T09:34:12.577Z,761.00
2024-03-12T09:35:12.766Z,711.00
2024-03-12T09:36:12.526Z,677.00
2024-03-12T09:37:12.664Z,659.00
2024-03-12T09:38:12.691Z,651.00
2024-03-12T09:39:12.764Z,648.00
2024-03-12T09:40:13.276Z,639.00
2024-03-12T09:41:12.834Z,629.00
2024-03-12T09:42:12.881Z,623.00
2024-03-12T09:43:12.987Z,627.00
2024-03-12T09:44:13.010Z,633.00
2024-03-12T09:45:13.589Z,635.00
2024-03-12T09:46:13.279Z,628.00
2024-03-12T09:47:13.216Z,617.00
2024-03-12T09:48:13.341Z,609.00
2024-03-12T09:49:13.337Z,600.00
2024-03-12T09:50:13.766Z,600.00
2024-03-12T09:51:13.490Z,600.00
2024-03-12T09:52:13.521Z,600.00
2024-03-12T09:53:13.539Z,610.00
2024-03-12T09:54:13.619Z,606.00
2024-03-12T09:55:13.720Z,617.00
2024-03-12T09:56:13.718Z,614.00
2024-03-12T09:57:13.780Z,603.00
2024-03-12T09:58:13.870Z,597.00
2024-03-12T09:59:13.895Z,600.00
2024-03-12T10:00:13.965Z,601.00
2024-03-12T10:01:14.483Z,600.00
2024-03-12T10:02:14.191Z,600.00
2024-03-12T10:03:14.073Z,603.00
2024-03-12T10:04:14.091Z,600.00
2024-03-12T10:05:14.282Z,599.00
2024-03-12T10:06:14.129Z,600.00
2024-03-12T10:07:14.191Z,597.00
2024-03-12T10:08:14.340Z,598.00
2024-03-12T10:09:14.222Z,602.00
2024-03-12T10:10:14.236Z,600.00
2024-03-12T10:11:14.265Z,600.00
2024-03-12T10:12:14.267Z,602.00
2024-03-12T10:13:14.299Z,604.00
2024-03-12T10:14:14.341Z,609.00
2024-03-12T10:15:14.803Z,621.00
2024-03-12T10:16:14.534Z,644.00
2024-03-12T10:17:14.405Z,687.00
2024-03-12T10:18:14.404Z,768.00
2024-03-12T10:19:14.551Z,861.00
2024-03-12T10:20:14.785Z,920.00
2024-03-12T10:21:14.531Z,995.00
2024-03-12T10:22:14.644Z,1068.00
2024-03-12T10:23:14.688Z,1132.00
2024-03-12T10:24:14.974Z,1185.00
2024-03-12T10:25:15.345Z,1271.00
2024-03-12T10:26:14.833Z,1267.00
2024-03-12T10:27:14.877Z,1321.00
2024-03-12T10:28:14.940Z,1358.00
2024-03-12T10:29:15.012Z,1404.00
2024-03-12T10:30:15.293Z,1393.00
2024-03-12T10:31:15.095Z,1365.00
2024-03-12T10:32:15.037Z,1315.00
2024-03-12T10:33:15.114Z,1259.00
2024-03-12T10:34:15.171Z,1203.00
2024-03-12T10:35:15.239Z,1136.00
2024-03-12T10:36:15.276Z,1102.00
2024-03-12T10:37:15.412Z,1087.00
2024-03-12T10:38:15.387Z,1093.00
2024-03-12T10:39:15.455Z,1119.00
2024-03-12T10:40:15.596Z,1144.00
2024-03-12T10:41:15.558Z,1166.00
2024-03-12T10:42:15.644Z,1196.00
2024-03-12T10:43:15.688Z,1216.00
2024-03-12T10:44:17.237Z,1254.00
2024-03-12T10:45:15.776Z,1293.00
2024-03-12T10:46:15.922Z,1316.00
2024-03-12T10:47:15.821Z,1311.00
2024-03-12T10:48:15.961Z,1303.00
2024-03-12T10:49:15.972Z,1324.00
2024-03-12T10:50:15.920Z,1327.00
2024-03-12T10:51:16.001Z,1332.00
2024-03-12T10:52:16.048Z,1356.00
2024-03-12T10:53:16.016Z,1336.00
2024-03-12T10:54:16.029Z,1311.00
2024-03-12T10:55:16.067Z,1291.00
2024-03-12T10:56:16.398Z,1294.00
2024-03-12T10:57:16.107Z,1296.00
2024-03-12T10:58:16.191Z,1301.00
2024-03-12T10:59:16.143Z,1262.00
2024-03-12T11:00:16.198Z,1185.00
2024-03-12T11:01:16.568Z,1109.00
2024-03-12T11:02:16.312Z,1021.00
2024-03-12T11:03:16.304Z,936.00
2024-03-12T11:04:16.447Z,867.00
2024-03-12T11:05:16.333Z,791.00
2024-03-12T11:06:16.785Z,720.00
2024-03-12T11:07:16.503Z,659.00
2024-03-12T11:08:16.468Z,634.00
2024-03-12T11:09:16.538Z,606.00
2024-03-12T11:10:16.675Z,601.00
2024-03-12T11:11:16.728Z,600.00
2024-03-12T11:12:16.745Z,599.00
2024-03-12T11:13:16.856Z,600.00
2024-03-12T11:14:16.845Z,600.00
2024-03-12T11:15:16.898Z,600.00
2024-03-12T11:16:17.090Z,600.00
2024-03-12T11:17:16.942Z,600.00
2024-03-12T11:18:17.023Z,600.00
2024-03-12T11:19:17.194Z,600.00
2024-03-12T11:20:17.318Z,601.00
2024-03-12T11:21:17.007Z,602.00
2024-03-12T11:22:17.084Z,603.00
2024-03-12T11:23:17.076Z,619.00
2024-03-12T11:24:17.122Z,629.00
2024-03-12T11:25:17.377Z,651.00
2024-03-12T11:26:17.250Z,670.00
2024-03-12T11:27:17.376Z,752.00
2024-03-12T11:28:17.324Z,822.00
2024-03-12T11:29:17.361Z,887.00
2024-03-12T11:30:17.824Z,958.00
2024-03-12T11:31:17.396Z,1016.00
2024-03-12T11:32:17.374Z,1063.00
2024-03-12T11:33:17.397Z,1115.00
2024-03-12T11:34:17.443Z,1171.00
2024-03-12T11:35:17.435Z,1213.00
2024-03-12T11:36:17.552Z,1247.00
2024-03-12T11:37:17.637Z,1288.00
2024-03-12T11:38:17.613Z,1317.00
2024-03-12T11:39:17.684Z,1339.00
2024-03-12T11:40:17.822Z,1372.00
2024-03-12T11:41:17.851Z,1388.00
2024-03-12T11:42:17.886Z,1411.00
2024-03-12T11:43:17.973Z,1425.00
2024-03-12T11:44:18.024Z,1409.00
2024-03-12T11:45:18.082Z,1392.00
2024-03-12T11:46:18.169Z,1384.00
2024-03-12T11:47:18.218Z,1387.00
2024-03-12T11:48:18.267Z,1384.00
2024-03-12T11:49:18.371Z,1392.00
2024-03-12T11:50:18.411Z,1413.00
2024-03-12T11:51:18.457Z,1408.00
2024-03-12T11:52:18.515Z,1402.00
2024-03-12T11:53:18.580Z,1415.00
2024-03-12T11:54:18.667Z,1423.00
2024-03-12T11:55:18.713Z,1428.00
2024-03-12T11:56:18.743Z,1447.00
2024-03-12T11:57:18.803Z,1459.00
2024-03-12T11:58:18.871Z,1435.00
2024-03-12T11:59:20.256Z,1439.00
2024-03-12T12:00:19.313Z,1417.00
2024-03-12T12:01:19.133Z,1405.00
2024-03-12T12:02:19.298Z,1420.00
2024-03-12T12:03:19.153Z,1431.00
2024-03-12T12:04:19.258Z,1427.00
2024-03-12T12:05:19.276Z,1439.00
2024-03-12T12:06:19.333Z,1445.00
2024-03-12T12:07:19.472Z,1457.00
2024-03-12T12:08:19.433Z,1472.00
2024-03-12T12:09:19.488Z,1445.00
2024-03-12T12:10:19.880Z,1431.00
2024-03-12T12:11:19.626Z,1429.00
2024-03-12T12:12:19.684Z,1434.00
2024-03-12T12:13:19.738Z,1433.00
2024-03-12T12:14:19.777Z,1448.00
2024-03-12T12:15:20.320Z,1468.00
2024-03-12T12:16:19.956Z,1499.00
2024-03-12T12:17:19.920Z,1511.00
2024-03-12T12:18:19.997Z,1520.00
2024-03-12T12:19:25.510Z,1550.00
2024-03-12T12:20:21.052Z,1551.00
2024-03-12T12:21:20.029Z,1557.00
2024-03-12T12:22:20.110Z,1570.00